createdAt,value
2023-10-09T00:01:14.349Z,6.65
2023-10-09T00:03:44.926Z,6.60
2023-10-09T00:06:14.877Z,6.38
2023-10-09T00:08:46.072Z,6.57
2023-10-09T00:11:18.278Z,5.88
2023-10-09T00:13:52.995Z,6.40
2023-10-09T00:16:34.003Z,6.28
2023-10-09T00:19:14.943Z,6.47
2023-10-09T00:21:43.437Z,5.95
2023-10-09T00:24:15.771Z,6.18
2023-10-09T00:26:46.969Z,6.07
2023-10-09T00:29:22.787Z,5.72
2023-10-09T00:32:07.003Z,5.90
2023-10-09T00:34:40.886Z,6.35
2023-10-09T00:37:12.049Z,6.45
2023-10-09T00:39:44.884Z,6.25
2023-10-09T00:42:23.917Z,6.43
2023-10-09T00:44:53.436Z,6.20
2023-10-09T00:47:28.016Z,6.30
2023-10-09T00:50:01.837Z,6.47
2023-10-09T00:52:38.230Z,6.65
2023-10-09T00:55:14.873Z,6.75
2023-10-09T00:57:51.361Z,6.88
2023-10-09T01:00:34.976Z,6.13
2023-10-09T01:03:20.343Z,6.13
2023-10-09T01:05:58.161Z,6.03
2023-10-09T01:08:30.922Z,6.32
2023-10-09T01:11:09.962Z,6.43
2023-10-09T01:13:53.571Z,6.22
2023-10-09T01:16:24.999Z,6.75
2023-10-09T01:18:58.063Z,6.57
2023-10-09T01:21:27.803Z,6.18
2023-10-09T01:24:14.580Z,6.80
2023-10-09T01:26:47.550Z,5.78
2023-10-09T01:29:17.352Z,6.28
2023-10-09T01:31:52.265Z,6.60
2023-10-09T01:34:25.388Z,6.50
2023-10-09T01:36:56.490Z,6.82
2023-10-09T01:39:27.754Z,6.63
2023-10-09T01:42:06.714Z,7.07
2023-10-09T01:44:36.872Z,6.60
2023-10-09T01:47:08.948Z,6.53
2023-10-09T01:49:38.575Z,7.15
2023-10-09T01:52:10.120Z,6.20
2023-10-09T01:54:42.809Z,6.35
2023-10-09T01:57:14.419Z,6.15
2023-10-09T01:59:46.298Z,6.40
2023-10-09T02:02:44.561Z,6.78
2023-10-09T02:05:25.881Z,6.25
2023-10-09T02:07:54.345Z,6.60
2023-10-09T02:10:33.008Z,6.22
2023-10-09T02:13:08.114Z,6.43
2023-10-09T02:15:47.609Z,6.50
2023-10-09T02:18:26.884Z,6.57
2023-10-09T02:21:13.634Z,6.03
2023-10-09T02:23:48.016Z,6.22
2023-10-09T02:27:08.046Z,6.43
2023-10-09T02:29:39.816Z,6.60
2023-10-09T02:32:17.400Z,5.97
2023-10-09T02:34:47.670Z,5.95
2023-10-09T02:37:15.907Z,6.43
2023-10-09T02:39:48.584Z,5.88
2023-10-09T02:42:27.935Z,5.95
2023-10-09T02:44:56.693Z,5.65
2023-10-09T02:47:49.887Z,5.63
2023-10-09T02:50:29.321Z,6.03
2023-10-09T02:53:09.669Z,5.55
2023-10-09T02:55:39.999Z,6.82
2023-10-09T02:58:21.383Z,6.05
2023-10-09T03:00:50.329Z,5.15
2023-10-09T03:03:20.192Z,4.82
2023-10-09T03:05:51.075Z,5.78
2023-10-09T03:08:20.501Z,5.72
2023-10-09T03:10:49.103Z,5.20
2023-10-09T03:13:20.450Z,5.10
2023-10-09T03:15:53.031Z,6.15
2023-10-09T03:18:21.728Z,5.38
2023-10-09T03:20:49.772Z,6.75
2023-10-09T03:23:17.961Z,5.53
2023-10-09T03:25:46.768Z,5.80
2023-10-09T03:28:16.394Z,4.90
2023-10-09T03:30:48.375Z,5.68
2023-10-09T03:33:17.226Z,5.82
2023-10-09T03:35:45.551Z,5.90
2023-10-09T03:38:18.984Z,5.82
2023-10-09T03:40:49.350Z,4.82
2023-10-09T03:43:17.823Z,5.70
2023-10-09T03:45:53.668Z,5.60
2023-10-09T03:48:24.082Z,4.55
2023-10-09T03:51:00.505Z,5.72
2023-10-09T03:53:31.337Z,5.63
2023-10-09T03:58:34.166Z,5.45
2023-10-09T04:01:10.377Z,5.45
2023-10-09T04:03:40.109Z,4.70
2023-10-09T04:06:11.024Z,5.15
2023-10-09T04:11:17.206Z,5.95
2023-10-09T04:13:47.291Z,4.80
2023-10-09T04:16:35.355Z,5.85
2023-10-09T04:19:12.487Z,4.97
2023-10-09T04:21:39.849Z,5.40
2023-10-09T04:24:24.064Z,5.15
2023-10-09T04:26:57.365Z,5.18
2023-10-09T04:29:28.702Z,5.28
2023-10-09T04:32:01.779Z,5.25
2023-10-09T04:34:37.133Z,5.25
2023-10-09T04:37:25.378Z,5.88
2023-10-09T04:40:15.075Z,5.38
2023-10-09T04:42:59.064Z,5.15
2023-10-09T04:45:47.339Z,5.53
2023-10-09T04:48:33.880Z,5.68
2023-10-09T04:51:20.198Z,4.78
2023-10-09T04:53:56.143Z,6.03
2023-10-09T04:56:25.634Z,5.05
2023-10-09T04:59:04.658Z,5.88
2023-10-09T05:01:45.307Z,5.03
2023-10-09T05:07:22.381Z,5.88
2023-10-09T05:09:59.042Z,5.20
2023-10-09T05:12:28.808Z,5.30
2023-10-09T05:15:09.844Z,5.20
2023-10-09T05:17:39.609Z,5.10
2023-10-09T05:20:26.495Z,6.38
2023-10-09T05:22:59.407Z,4.93
2023-10-09T05:25:45.849Z,5.25
2023-10-09T05:28:31.878Z,5.47
2023-10-09T05:31:09.715Z,4.93
2023-10-09T05:33:39.730Z,5.53
2023-10-09T05:36:33.104Z,4.90
2023-10-09T05:39:17.012Z,5.60
2023-10-09T05:42:03.448Z,4.97
2023-10-09T05:44:51.311Z,5.05
2023-10-09T05:47:36.425Z,4.57
2023-10-09T05:53:18.374Z,4.65
2023-10-09T05:56:10.187Z,4.90
2023-10-09T05:59:10.229Z,4.53
2023-10-09T06:06:05.995Z,4.80
2023-10-09T06:08:56.780Z,4.97
2023-10-09T06:11:42.625Z,5.18
2023-10-09T06:14:14.485Z,5.13
2023-10-09T06:16:50.162Z,5.05
2023-10-09T06:19:28.296Z,5.50
2023-10-09T06:22:20.190Z,4.82
2023-10-09T06:24:58.735Z,5.15
2023-10-09T06:27:48.453Z,5.78
2023-10-09T06:30:25.537Z,5.05
2023-10-09T06:32:59.558Z,5.28
2023-10-09T06:35:32.663Z,5.15
2023-10-09T06:38:19.713Z,5.05
2023-10-09T06:41:08.922Z,5.45
2023-10-09T06:43:54.235Z,5.47
2023-10-09T06:46:45.195Z,5.75
2023-10-09T06:49:34.356Z,4.68
2023-10-09T06:52:16.508Z,5.30
2023-10-09T06:54:51.339Z,4.75
2023-10-09T06:57:45.024Z,6.00
2023-10-09T07:00:29.438Z,5.22
2023-10-09T07:03:01.655Z,5.50
2023-10-09T07:05:39.352Z,5.53
2023-10-09T07:08:27.696Z,5.05
2023-10-09T07:11:14.854Z,5.30
2023-10-09T07:13:43.873Z,4.70
2023-10-09T07:16:29.964Z,4.93
2023-10-09T07:19:10.863Z,5.85
2023-10-09T07:24:18.709Z,4.78
2023-10-09T07:26:54.059Z,4.35
2023-10-09T07:29:24.022Z,4.40
2023-10-09T07:35:35.506Z,4.90
2023-10-09T07:38:04.487Z,4.65
2023-10-09T07:40:53.006Z,5.88
2023-10-09T07:43:27.235Z,5.32
2023-10-09T07:46:13.046Z,5.53
2023-10-09T07:48:49.971Z,4.72
2023-10-09T07:51:21.145Z,4.80
2023-10-09T07:53:51.259Z,5.40
2023-10-09T07:56:22.106Z,5.45
2023-10-09T08:01:53.488Z,5.03
2023-10-09T08:04:39.036Z,4.53
2023-10-09T08:08:08.782Z,6.18
2023-10-09T08:11:00.380Z,6.47
2023-10-09T08:13:51.410Z,5.60
2023-10-09T08:16:53.078Z,5.68
2023-10-09T08:19:33.722Z,6.60
2023-10-09T08:22:17.160Z,6.03
2023-10-09T08:24:53.796Z,6.18
2023-10-09T08:27:48.296Z,6.03
2023-10-09T08:30:29.639Z,5.10
2023-10-09T08:35:49.373Z,6.05
2023-10-09T08:38:24.654Z,5.07
2023-10-09T08:40:59.953Z,5.53
2023-10-09T08:43:32.070Z,5.90
2023-10-09T08:46:03.554Z,5.32
2023-10-09T08:48:32.846Z,5.18
2023-10-09T08:51:07.673Z,5.30
2023-10-09T08:53:44.029Z,5.13
2023-10-09T08:56:12.710Z,5.43
2023-10-09T08:58:41.759Z,5.78
2023-10-09T09:01:10.011Z,5.90
2023-10-09T09:03:44.760Z,5.35
2023-10-09T09:06:15.790Z,5.28
2023-10-09T09:08:46.244Z,5.28
2023-10-09T09:11:18.513Z,5.22
2023-10-09T09:13:50.933Z,5.45
2023-10-09T09:16:21.557Z,4.60
2023-10-09T09:19:06.216Z,5.15
2023-10-09T09:21:41.874Z,5.38
2023-10-09T09:24:28.102Z,5.18
2023-10-09T09:27:01.121Z,6.53
2023-10-09T09:29:41.517Z,5.40
2023-10-09T09:32:18.738Z,5.25
2023-10-09T09:34:49.617Z,5.82
2023-10-09T09:37:22.541Z,6.10
2023-10-09T09:39:56.020Z,5.03
2023-10-09T09:42:28.197Z,5.32
2023-10-09T09:44:58.572Z,5.20
2023-10-09T09:47:28.471Z,5.35
2023-10-09T09:50:01.948Z,5.68
2023-10-09T09:52:40.085Z,5.55
2023-10-09T09:55:17.868Z,5.00
2023-10-09T09:57:52.847Z,5.75
2023-10-09T10:00:31.943Z,5.85
2023-10-09T10:03:07.788Z,5.80
2023-10-09T10:05:36.666Z,5.60
2023-10-09T10:08:13.367Z,5.68
2023-10-09T10:10:55.208Z,6.72
2023-10-09T10:14:00.152Z,5.85
2023-10-09T10:16:44.747Z,6.07
2023-10-09T10:19:26.721Z,5.50
2023-10-09T10:21:55.095Z,5.47
2023-10-09T10:24:55.044Z,5.63
2023-10-09T10:27:34.356Z,5.10
2023-10-09T10:30:34.599Z,5.10
2023-10-09T10:33:17.324Z,5.55
2023-10-09T10:35:53.994Z,5.53
2023-10-09T10:38:38.008Z,6.15
2023-10-09T10:41:15.186Z,5.72
2023-10-09T10:44:00.561Z,5.20
2023-10-09T10:46:39.952Z,5.75
2023-10-09T10:49:21.788Z,6.10
2023-10-09T10:51:52.170Z,5.00
2023-10-09T10:57:52.487Z,5.72
2023-10-09T11:00:39.612Z,5.53
2023-10-09T11:03:20.418Z,5.53
2023-10-09T11:05:53.086Z,5.65
2023-10-09T11:08:32.346Z,5.18
2023-10-09T11:11:17.301Z,5.97
2023-10-09T11:13:55.467Z,5.35
2023-10-09T11:16:43.186Z,5.10
2023-10-09T11:19:30.223Z,5.30
2023-10-09T11:22:16.109Z,5.03
2023-10-09T11:24:45.240Z,4.90
2023-10-09T11:27:20.147Z,5.00
2023-10-09T11:29:56.094Z,6.03
2023-10-09T11:32:24.873Z,4.50
2023-10-09T11:35:10.952Z,5.72
2023-10-09T11:37:43.864Z,6.13
2023-10-09T11:40:33.987Z,4.90
2023-10-09T11:43:02.016Z,4.63
2023-10-09T11:45:31.011Z,4.72
2023-10-09T11:48:25.782Z,5.07
2023-10-09T11:50:55.458Z,5.18
2023-10-09T11:53:36.026Z,5.50
2023-10-09T11:56:03.499Z,5.53
2023-10-09T11:58:31.686Z,5.10
2023-10-09T12:01:10.313Z,5.00
2023-10-09T12:03:40.178Z,4.78
2023-10-09T12:06:13.295Z,5.13
2023-10-09T12:08:42.054Z,5.80
2023-10-09T12:11:12.238Z,6.15
2023-10-09T12:13:40.690Z,5.75
2023-10-09T12:16:12.871Z,4.82
2023-10-09T12:18:42.354Z,5.03
2023-10-09T12:21:17.066Z,5.15
2023-10-09T12:23:48.495Z,4.50
2023-10-09T12:26:17.008Z,4.82
2023-10-09T12:28:47.560Z,5.57
2023-10-09T12:31:16.660Z,5.40
2023-10-09T12:34:11.025Z,5.43
2023-10-09T12:36:39.052Z,4.90
2023-10-09T12:39:07.272Z,5.30
2023-10-09T12:41:36.541Z,5.97
2023-10-09T12:44:05.991Z,5.80
2023-10-09T12:46:39.130Z,5.57
2023-10-09T12:49:07.811Z,5.18
2023-10-09T12:51:37.442Z,5.00
2023-10-09T12:54:06.139Z,6.35
2023-10-09T12:56:39.684Z,6.25
2023-10-09T12:59:08.985Z,4.78
2023-10-09T13:01:44.722Z,5.50
2023-10-09T13:04:15.010Z,4.85
2023-10-09T13:06:45.921Z,5.95
2023-10-09T13:09:14.928Z,5.35
2023-10-09T13:11:43.750Z,5.85
2023-10-09T13:14:18.433Z,4.68
2023-10-09T13:16:47.386Z,5.57
2023-10-09T13:19:15.564Z,4.82
2023-10-09T13:21:45.760Z,4.88
2023-10-09T13:26:47.931Z,5.35
2023-10-09T13:29:23.501Z,5.80
2023-10-09T13:31:54.083Z,5.07
2023-10-09T13:34:22.252Z,5.15
2023-10-09T13:36:54.597Z,5.20
2023-10-09T13:39:25.623Z,5.45
2023-10-09T13:41:59.189Z,5.80
2023-10-09T13:44:29.106Z,5.63
2023-10-09T13:46:57.938Z,5.00
2023-10-09T13:49:31.588Z,6.28
2023-10-09T13:52:04.277Z,5.68
2023-10-09T13:54:42.009Z,5.03
2023-10-09T13:57:12.186Z,5.53
2023-10-09T14:02:19.175Z,5.20
2023-10-09T14:04:49.582Z,6.90
2023-10-09T14:07:21.476Z,5.55
2023-10-09T14:09:57.431Z,5.63
2023-10-09T14:12:33.162Z,7.35
2023-10-09T14:15:04.728Z,9.00
2023-10-09T14:17:32.917Z,5.82
2023-10-09T14:20:23.155Z,5.40
2023-10-09T14:25:23.157Z,6.53
2023-10-09T14:27:54.199Z,6.55
2023-10-09T14:30:32.073Z,5.55
2023-10-09T14:33:03.303Z,6.35
2023-10-09T14:35:34.845Z,7.38
2023-10-09T14:38:12.588Z,5.28
2023-10-09T14:40:44.920Z,9.73
2023-10-09T14:43:20.202Z,5.55
2023-10-09T14:45:51.112Z,5.10
2023-10-09T14:48:19.670Z,7.80
2023-10-09T14:50:54.212Z,7.97
2023-10-09T14:53:35.565Z,6.00
2023-10-09T14:56:04.934Z,5.57
2023-10-09T14:58:36.139Z,5.85
2023-10-09T15:01:16.632Z,5.88
2023-10-09T15:03:45.533Z,5.43
2023-10-09T15:06:18.264Z,5.68
2023-10-09T15:08:50.690Z,5.40
2023-10-09T15:11:19.119Z,6.47
2023-10-09T15:13:48.020Z,5.70
2023-10-09T15:16:16.448Z,5.70
2023-10-09T15:18:44.640Z,5.63
2023-10-09T15:21:12.687Z,5.25
2023-10-09T15:23:40.891Z,5.78
2023-10-09T15:26:10.477Z,5.72
2023-10-09T15:28:43.612Z,5.68
2023-10-09T15:31:12.556Z,5.05
2023-10-09T15:33:41.064Z,5.55
2023-10-09T15:36:14.036Z,5.93
2023-10-09T15:38:42.379Z,26.50
2023-10-09T15:41:12.940Z,12.63
2023-10-09T15:43:41.611Z,6.22
2023-10-09T15:46:17.627Z,5.93
2023-10-09T15:48:47.360Z,6.60
2023-10-09T15:51:16.968Z,6.65
2023-10-09T15:53:46.781Z,5.67
2023-10-09T15:56:19.047Z,5.45
2023-10-09T15:58:47.444Z,5.63
2023-10-09T16:01:19.612Z,4.80
2023-10-09T16:03:49.344Z,5.70
2023-10-09T16:06:18.405Z,5.65
2023-10-09T16:08:47.623Z,5.15
2023-10-09T16:11:20.263Z,5.00
2023-10-09T16:13:48.419Z,4.80
2023-10-09T16:16:16.545Z,4.80
2023-10-09T16:18:44.835Z,6.03
2023-10-09T16:21:13.619Z,5.18
2023-10-09T16:23:43.401Z,6.28
2023-10-09T16:26:12.441Z,5.03
2023-10-09T16:28:42.441Z,5.90
2023-10-09T16:31:15.343Z,5.40
2023-10-09T16:33:43.452Z,5.60
2023-10-09T16:36:11.509Z,5.25
2023-10-09T16:38:40.695Z,5.35
2023-10-09T16:41:10.033Z,5.25
2023-10-09T16:43:42.539Z,5.47
2023-10-09T16:46:15.276Z,4.43
2023-10-09T16:48:47.229Z,5.40
2023-10-09T16:51:19.086Z,4.90
2023-10-09T16:53:47.157Z,4.65
2023-10-09T16:56:15.333Z,5.60
2023-10-09T16:58:43.614Z,4.85
2023-10-09T17:01:13.282Z,5.32
2023-10-09T17:03:43.757Z,5.50
2023-10-09T17:06:13.212Z,5.22
2023-10-09T17:08:43.548Z,5.43
2023-10-09T17:11:14.001Z,5.50
2023-10-09T17:13:45.609Z,6.13
2023-10-09T17:16:18.411Z,5.07
2023-10-09T17:18:48.654Z,5.60
2023-10-09T17:21:17.412Z,5.95
2023-10-09T17:23:47.010Z,7.30
2023-10-09T17:26:16.148Z,8.77
2023-10-09T17:28:44.835Z,8.68
2023-10-09T17:31:14.069Z,8.27
2023-10-09T17:33:44.657Z,7.05
2023-10-09T17:38:43.426Z,7.57
2023-10-09T17:41:11.645Z,6.22
2023-10-09T17:43:40.819Z,8.43
2023-10-09T17:46:09.055Z,12.30
2023-10-09T17:48:37.213Z,11.02
2023-10-09T17:51:09.830Z,10.15
2023-10-09T17:53:39.625Z,11.38
2023-10-09T17:56:09.275Z,11.30
2023-10-09T17:59:52.725Z,5.83
2023-10-09T18:02:20.953Z,7.28
2023-10-09T18:04:49.733Z,47.35
2023-10-09T18:07:20.162Z,27.05
2023-10-09T18:09:53.328Z,16.88
2023-10-09T18:12:25.626Z,13.95
2023-10-09T18:15:21.953Z,17.42
2023-10-09T18:17:51.467Z,9.43
2023-10-09T18:20:21.824Z,7.95
2023-10-09T18:22:51.937Z,7.30
2023-10-09T18:25:20.384Z,6.75
2023-10-09T18:27:48.874Z,8.07
2023-10-09T18:30:17.056Z,12.95
2023-10-09T18:32:47.285Z,20.45
2023-10-09T18:35:17.213Z,15.55
2023-10-09T18:37:45.568Z,8.73
2023-10-09T18:40:17.729Z,7.10
2023-10-09T18:42:46.129Z,6.35
2023-10-09T18:45:16.601Z,6.15
2023-10-09T18:47:44.801Z,7.85
2023-10-09T18:50:13.588Z,7.05
2023-10-09T18:52:43.794Z,20.08
2023-10-09T18:55:14.418Z,40.25
2023-10-09T18:57:44.170Z,16.60
2023-10-09T19:00:20.757Z,8.07
2023-10-09T19:02:52.196Z,7.45
2023-10-09T19:05:21.083Z,6.78
2023-10-09T19:07:49.431Z,6.45
2023-10-09T19:10:21.971Z,7.07
2023-10-09T19:12:50.357Z,6.95
2023-10-09T19:15:19.535Z,7.07
2023-10-09T19:17:47.929Z,6.72
2023-10-09T19:20:18.185Z,6.20
2023-10-09T19:22:46.466Z,7.75
2023-10-09T19:25:17.708Z,7.15
2023-10-09T19:27:49.684Z,6.50
2023-10-09T19:30:18.627Z,6.93
2023-10-09T19:32:48.614Z,7.20
2023-10-09T19:35:17.487Z,8.23
2023-10-09T19:37:48.928Z,7.95
2023-10-09T19:40:17.332Z,8.02
2023-10-09T19:42:45.437Z,8.10
2023-10-09T19:45:20.570Z,7.88
2023-10-09T19:47:50.950Z,8.35
2023-10-09T19:50:19.403Z,8.90
2023-10-09T19:52:49.435Z,9.02
2023-10-09T19:55:22.469Z,8.57
2023-10-09T19:57:52.488Z,9.18
2023-10-09T20:00:23.574Z,9.10
2023-10-09T20:02:55.273Z,8.60
2023-10-09T20:05:24.228Z,9.38
2023-10-09T20:07:54.051Z,8.43
2023-10-09T20:10:22.288Z,9.05
2023-10-09T20:12:50.478Z,9.38
2023-10-09T20:15:22.377Z,10.50
2023-10-09T20:17:51.982Z,9.65
2023-10-09T20:20:23.812Z,10.95
2023-10-09T20:22:53.622Z,10.25
2023-10-09T20:25:23.975Z,10.52
2023-10-09T20:27:53.908Z,9.93
2023-10-09T20:30:25.358Z,10.20
2023-10-09T20:32:55.227Z,10.10
2023-10-09T20:35:27.758Z,9.52
2023-10-09T20:37:56.869Z,9.95
2023-10-09T20:40:25.409Z,10.15
2023-10-09T20:42:55.429Z,10.60
2023-10-09T20:45:23.584Z,11.48
2023-10-09T20:47:56.128Z,11.65
2023-10-09T20:50:27.043Z,10.98
2023-10-09T20:52:56.139Z,10.40
2023-10-09T20:55:24.721Z,9.55
2023-10-09T20:57:57.883Z,9.80
2023-10-09T21:00:27.892Z,10.90
2023-10-09T21:02:57.909Z,12.10
2023-10-09T21:05:28.090Z,10.10
2023-10-09T21:07:56.841Z,10.27
2023-10-09T21:10:24.987Z,10.15
2023-10-09T21:12:53.295Z,11.32
2023-10-09T21:15:22.695Z,10.65
2023-10-09T21:17:53.376Z,9.90
2023-10-09T21:20:22.027Z,11.10
2023-10-09T21:22:55.313Z,10.50
2023-10-09T21:25:24.476Z,11.40
2023-10-09T21:27:55.444Z,11.02
2023-10-09T21:30:24.636Z,10.77
2023-10-09T21:32:55.157Z,10.60
2023-10-09T21:35:28.931Z,9.65
2023-10-09T21:38:00.414Z,9.98
2023-10-09T21:40:30.793Z,10.38
2023-10-09T21:43:00.421Z,11.05
2023-10-09T21:45:29.371Z,9.60
2023-10-09T21:48:00.016Z,9.60
2023-10-09T21:50:29.953Z,9.77
2023-10-09T21:53:00.946Z,10.10
2023-10-09T21:55:28.971Z,9.73
2023-10-09T21:57:57.224Z,9.43
2023-10-09T22:00:32.676Z,9.40
2023-10-09T22:03:04.182Z,9.75
2023-10-09T22:05:34.024Z,9.48
2023-10-09T22:08:03.824Z,9.75
2023-10-09T22:10:32.072Z,9.60
2023-10-09T22:13:27.466Z,9.15
2023-10-09T22:15:55.635Z,9.68
2023-10-09T22:18:26.907Z,9.77
2023-10-09T22:20:57.869Z,8.88
2023-10-09T22:23:34.066Z,9.40
2023-10-09T22:26:03.036Z,9.45
2023-10-09T22:28:34.266Z,8.65
2023-10-09T22:31:05.286Z,8.57
2023-10-09T22:33:47.014Z,8.98
2023-10-09T22:36:28.460Z,8.77
2023-10-09T22:39:08.608Z,7.53
2023-10-09T22:41:36.623Z,8.20
2023-10-09T22:44:11.737Z,9.50
2023-10-09T22:46:41.890Z,9.02
2023-10-09T22:49:16.129Z,9.27
2023-10-09T22:51:51.416Z,9.75
2023-10-09T22:54:31.406Z,8.63
2023-10-09T22:56:59.574Z,10.27
2023-10-09T22:59:28.586Z,9.50
2023-10-09T23:01:57.995Z,8.73
2023-10-09T23:04:38.405Z,9.80
2023-10-09T23:07:15.441Z,10.25
2023-10-09T23:09:51.928Z,9.38
2023-10-09T23:12:24.453Z,9.60
2023-10-09T23:14:54.192Z,9.02
2023-10-09T23:17:43.078Z,10.20
2023-10-09T23:20:17.561Z,9.65
2023-10-09T23:22:51.289Z,9.85
2023-10-09T23:25:30.646Z,9.55
2023-10-09T23:28:17.196Z,9.07
2023-10-09T23:30:45.465Z,9.85
2023-10-09T23:33:16.857Z,9.20
2023-10-09T23:36:09.803Z,9.30
2023-10-09T23:38:57.981Z,9.48
2023-10-09T23:41:26.934Z,9.38
2023-10-09T23:43:56.599Z,9.38
2023-10-09T23:46:25.891Z,9.27
2023-10-09T23:48:55.256Z,8.82
2023-10-09T23:51:28.218Z,9.52
2023-10-09T23:54:02.536Z,10.45
2023-10-09T23:56:43.771Z,8.95
2023-10-09T23:59:14.372Z,8.82
